Jena, Florida
Current Conditions -  °F | °C
As of 12:15 PM on Thursday 30 Oct 2014 (Local Time) from K40J Reporting Station
Broken Clouds Broken Clouds  
Wind Chill: 72°   Ceiling: 11000
Heat Index: 72°   Visibility: 10mi
Dew Point: 59°   Wind: 6mph
Humidity: 64%   Direction: 360°N
Pressure: 30.01"   Gusts: NA
Location:  29.6015°N, 83.3311°W
Report Text: K40J 301615Z AUTO 36005KT 10SM SCT050 SCT070 BKN110 22/15 A3001 RMK AO2
Loading
Personal Weather Stations






























Interactive Weather Map
Tropical Storm Tracking
New forecast layout! Learn more

10-Day Weather Forecast

Advertisements
Track Severe Weather on mobile